Terminal Aerodrome Forecast
Issued by NWS

Home | Current Version | Previous Version | Text Only | Print | Product List | Glossary On
Versions: 1 2 3 4 5 6 7 8 9 10 11 12 13 14 15 16
930
FTUS43 KILX 241120
TAFBMI
TAF
KBMI 241120Z 2412/2512 VRB05KT P6SM OVC020
     FM242000 14010KT P6SM BKN022
     FM242200 14012KT P6SM BKN035
     FM250100 15014G20KT P6SM BKN015
     FM250600 16013G21KT P6SM VCSH BKN010=

USA.gov is the U.S. government's official web portal to all federal, state and local government web resources and services.